sensor_id;sensor_type;location;lat;lon;timestamp;P1;durP1;ratioP1;P2;durP2;ratioP2
14933;SDS011;7560;51.364;12.384;2022-08-21T00:01:19;51.45;;;30.83;;
14933;SDS011;7560;51.364;12.384;2022-08-21T00:06:25;45.30;;;29.20;;
14933;SDS011;7560;51.364;12.384;2022-08-21T00:11:26;45.92;;;29.02;;
14933;SDS011;7560;51.364;12.384;2022-08-21T00:16:28;49.05;;;30.35;;
14933;SDS011;7560;51.364;12.384;2022-08-21T00:21:30;50.28;;;29.80;;
14933;SDS011;7560;51.364;12.384;2022-08-21T00:26:32;48.53;;;28.58;;
14933;SDS011;7560;51.364;12.384;2022-08-21T00:31:33;44.88;;;27.00;;
14933;SDS011;7560;51.364;12.384;2022-08-21T00:36:35;36.17;;;23.77;;
14933;SDS011;7560;51.364;12.384;2022-08-21T00:41:38;33.90;;;22.38;;
14933;SDS011;7560;51.364;12.384;2022-08-21T00:46:41;29.05;;;20.70;;
14933;SDS011;7560;51.364;12.384;2022-08-21T00:51:49;30.30;;;20.17;;
14933;SDS011;7560;51.364;12.384;2022-08-21T00:56:56;26.75;;;18.63;;
14933;SDS011;7560;51.364;12.384;2022-08-21T01:02:04;27.83;;;19.23;;
14933;SDS011;7560;51.364;12.384;2022-08-21T01:07:08;21.45;;;15.98;;
14933;SDS011;7560;51.364;12.384;2022-08-21T01:12:10;22.75;;;15.90;;
14933;SDS011;7560;51.364;12.384;2022-08-21T01:17:13;19.80;;;14.68;;
14933;SDS011;7560;51.364;12.384;2022-08-21T01:22:16;19.80;;;14.75;;
14933;SDS011;7560;51.364;12.384;2022-08-21T01:27:18;19.38;;;14.63;;
14933;SDS011;7560;51.364;12.384;2022-08-21T01:32:20;18.75;;;13.90;;
14933;SDS011;7560;51.364;12.384;2022-08-21T01:37:22;17.70;;;13.23;;
14933;SDS011;7560;51.364;12.384;2022-08-21T01:42:24;18.45;;;13.80;;
14933;SDS011;7560;51.364;12.384;2022-08-21T01:47:26;19.15;;;14.25;;
14933;SDS011;7560;51.364;12.384;2022-08-21T01:52:28;21.02;;;14.32;;
14933;SDS011;7560;51.364;12.384;2022-08-21T01:57:30;19.77;;;14.65;;
14933;SDS011;7560;51.364;12.384;2022-08-21T02:02:33;19.10;;;14.77;;
14933;SDS011;7560;51.364;12.384;2022-08-21T02:07:39;21.30;;;14.27;;
14933;SDS011;7560;51.364;12.384;2022-08-21T02:12:43;19.15;;;14.43;;
14933;SDS011;7560;51.364;12.384;2022-08-21T02:17:48;20.95;;;14.73;;
14933;SDS011;7560;51.364;12.384;2022-08-21T02:22:52;19.85;;;14.57;;
14933;SDS011;7560;51.364;12.384;2022-08-21T02:27:54;18.85;;;14.80;;
14933;SDS011;7560;51.364;12.384;2022-08-21T02:32:57;21.77;;;14.57;;
14933;SDS011;7560;51.364;12.384;2022-08-21T02:38:01;18.75;;;13.98;;
14933;SDS011;7560;51.364;12.384;2022-08-21T02:43:06;19.60;;;13.55;;
14933;SDS011;7560;51.364;12.384;2022-08-21T02:48:13;18.10;;;12.23;;
14933;SDS011;7560;51.364;12.384;2022-08-21T02:53:17;16.58;;;11.80;;
14933;SDS011;7560;51.364;12.384;2022-08-21T02:58:21;14.95;;;10.85;;
14933;SDS011;7560;51.364;12.384;2022-08-21T03:03:25;16.92;;;10.73;;
14933;SDS011;7560;51.364;12.384;2022-08-21T03:08:29;12.70;;;9.60;;
14933;SDS011;7560;51.364;12.384;2022-08-21T03:13:30;14.27;;;10.43;;
14933;SDS011;7560;51.364;12.384;2022-08-21T03:18:33;15.15;;;10.73;;
14933;SDS011;7560;51.364;12.384;2022-08-21T03:23:36;15.82;;;10.27;;
14933;SDS011;7560;51.364;12.384;2022-08-21T03:28:38;11.68;;;8.07;;
14933;SDS011;7560;51.364;12.384;2022-08-21T03:33:40;12.07;;;8.32;;
14933;SDS011;7560;51.364;12.384;2022-08-21T03:38:42;12.27;;;7.80;;
14933;SDS011;7560;51.364;12.384;2022-08-21T03:43:44;11.32;;;7.43;;
14933;SDS011;7560;51.364;12.384;2022-08-21T03:48:45;8.90;;;6.53;;
14933;SDS011;7560;51.364;12.384;2022-08-21T03:53:47;8.02;;;6.97;;
14933;SDS011;7560;51.364;12.384;2022-08-21T03:58:49;7.82;;;6.80;;
14933;SDS011;7560;51.364;12.384;2022-08-21T04:03:51;7.70;;;6.32;;
14933;SDS011;7560;51.364;12.384;2022-08-21T04:08:52;10.77;;;6.80;;
14933;SDS011;7560;51.364;12.384;2022-08-21T04:13:55;7.80;;;6.10;;
14933;SDS011;7560;51.364;12.384;2022-08-21T04:18:56;8.27;;;6.47;;
14933;SDS011;7560;51.364;12.384;2022-08-21T04:23:58;8.40;;;5.65;;
14933;SDS011;7560;51.364;12.384;2022-08-21T04:29:00;7.97;;;5.45;;
14933;SDS011;7560;51.364;12.384;2022-08-21T04:34:03;6.10;;;5.50;;
14933;SDS011;7560;51.364;12.384;2022-08-21T04:39:06;7.65;;;5.38;;
14933;SDS011;7560;51.364;12.384;2022-08-21T04:44:10;8.25;;;5.15;;
14933;SDS011;7560;51.364;12.384;2022-08-21T04:49:12;6.57;;;5.18;;
14933;SDS011;7560;51.364;12.384;2022-08-21T04:54:16;6.15;;;4.97;;
14933;SDS011;7560;51.364;12.384;2022-08-21T04:59:22;7.88;;;5.25;;
14933;SDS011;7560;51.364;12.384;2022-08-21T05:04:44;8.88;;;5.53;;
14933;SDS011;7560;51.364;12.384;2022-08-21T05:09:53;8.13;;;5.28;;
14933;SDS011;7560;51.364;12.384;2022-08-21T05:14:56;6.72;;;5.65;;
14933;SDS011;7560;51.364;12.384;2022-08-21T05:19:57;8.15;;;4.95;;
14933;SDS011;7560;51.364;12.384;2022-08-21T05:24:59;9.88;;;5.20;;
14933;SDS011;7560;51.364;12.384;2022-08-21T05:30:01;7.07;;;5.00;;
14933;SDS011;7560;51.364;12.384;2022-08-21T05:35:05;7.40;;;5.00;;
14933;SDS011;7560;51.364;12.384;2022-08-21T05:40:08;6.60;;;4.55;;
14933;SDS011;7560;51.364;12.384;2022-08-21T05:45:23;7.63;;;5.45;;
14933;SDS011;7560;51.364;12.384;2022-08-21T05:50:44;9.65;;;4.68;;
14933;SDS011;7560;51.364;12.384;2022-08-21T05:55:47;8.13;;;5.03;;
14933;SDS011;7560;51.364;12.384;2022-08-21T06:00:50;8.98;;;5.03;;
14933;SDS011;7560;51.364;12.384;2022-08-21T06:05:54;7.55;;;4.97;;
14933;SDS011;7560;51.364;12.384;2022-08-21T06:10:57;7.43;;;4.63;;
14933;SDS011;7560;51.364;12.384;2022-08-21T06:16:05;5.38;;;4.57;;
14933;SDS011;7560;51.364;12.384;2022-08-21T06:21:09;5.97;;;4.57;;
14933;SDS011;7560;51.364;12.384;2022-08-21T06:26:13;7.78;;;4.82;;
14933;SDS011;7560;51.364;12.384;2022-08-21T06:31:17;5.93;;;4.45;;
14933;SDS011;7560;51.364;12.384;2022-08-21T06:36:21;7.97;;;4.45;;
14933;SDS011;7560;51.364;12.384;2022-08-21T06:41:23;7.10;;;4.45;;
14933;SDS011;7560;51.364;12.384;2022-08-21T06:46:28;5.80;;;4.35;;
14933;SDS011;7560;51.364;12.384;2022-08-21T06:51:31;5.70;;;3.90;;
14933;SDS011;7560;51.364;12.384;2022-08-21T06:56:33;6.97;;;3.83;;
14933;SDS011;7560;51.364;12.384;2022-08-21T07:01:36;7.25;;;4.25;;
14933;SDS011;7560;51.364;12.384;2022-08-21T07:06:38;7.03;;;4.18;;
14933;SDS011;7560;51.364;12.384;2022-08-21T07:11:40;5.78;;;3.65;;
14933;SDS011;7560;51.364;12.384;2022-08-21T07:16:48;5.28;;;3.38;;
14933;SDS011;7560;51.364;12.384;2022-08-21T07:21:57;7.00;;;3.75;;
14933;SDS011;7560;51.364;12.384;2022-08-21T07:27:01;7.88;;;3.30;;
14933;SDS011;7560;51.364;12.384;2022-08-21T07:32:08;5.65;;;3.40;;
14933;SDS011;7560;51.364;12.384;2022-08-21T07:37:10;6.22;;;3.00;;
14933;SDS011;7560;51.364;12.384;2022-08-21T07:42:11;5.93;;;3.05;;
14933;SDS011;7560;51.364;12.384;2022-08-21T07:47:13;6.53;;;2.90;;
14933;SDS011;7560;51.364;12.384;2022-08-21T07:52:15;6.85;;;3.20;;
14933;SDS011;7560;51.364;12.384;2022-08-21T07:57:17;6.57;;;3.40;;
14933;SDS011;7560;51.364;12.384;2022-08-21T08:02:23;6.35;;;2.72;;
14933;SDS011;7560;51.364;12.384;2022-08-21T08:07:25;5.25;;;2.83;;
14933;SDS011;7560;51.364;12.384;2022-08-21T08:12:27;5.10;;;2.85;;
14933;SDS011;7560;51.364;12.384;2022-08-21T08:17:30;4.53;;;2.50;;
14933;SDS011;7560;51.364;12.384;2022-08-21T08:22:34;4.40;;;2.08;;
14933;SDS011;7560;51.364;12.384;2022-08-21T08:27:36;3.70;;;2.20;;
14933;SDS011;7560;51.364;12.384;2022-08-21T08:32:38;4.05;;;2.08;;
14933;SDS011;7560;51.364;12.384;2022-08-21T08:37:40;4.65;;;2.05;;
14933;SDS011;7560;51.364;12.384;2022-08-21T08:42:47;4.40;;;2.05;;
14933;SDS011;7560;51.364;12.384;2022-08-21T08:48:01;13.35;;;10.13;;
14933;SDS011;7560;51.364;12.384;2022-08-21T08:53:18;5.80;;;2.33;;
14933;SDS011;7560;51.364;12.384;2022-08-21T08:58:27;4.13;;;2.20;;
14933;SDS011;7560;51.364;12.384;2022-08-21T09:03:31;4.85;;;2.00;;
14933;SDS011;7560;51.364;12.384;2022-08-21T09:14:34;4.32;;;1.90;;
14933;SDS011;7560;51.364;12.384;2022-08-21T09:25:22;8.48;;;2.30;;
14933;SDS011;7560;51.364;12.384;2022-08-21T09:30:28;4.80;;;2.30;;
14933;SDS011;7560;51.364;12.384;2022-08-21T09:35:32;2.75;;;1.90;;
14933;SDS011;7560;51.364;12.384;2022-08-21T09:45:46;3.92;;;2.08;;
14933;SDS011;7560;51.364;12.384;2022-08-21T09:50:49;5.00;;;2.00;;
14933;SDS011;7560;51.364;12.384;2022-08-21T09:55:54;3.40;;;2.03;;
14933;SDS011;7560;51.364;12.384;2022-08-21T10:01:25;4.97;;;2.20;;
14933;SDS011;7560;51.364;12.384;2022-08-21T10:06:27;4.13;;;2.08;;
14933;SDS011;7560;51.364;12.384;2022-08-21T10:11:31;3.47;;;2.00;;
14933;SDS011;7560;51.364;12.384;2022-08-21T10:38:31;7.50;;;2.60;;
14933;SDS011;7560;51.364;12.384;2022-08-21T10:49:38;5.93;;;2.20;;
14933;SDS011;7560;51.364;12.384;2022-08-21T10:55:51;3.08;;;2.17;;
14933;SDS011;7560;51.364;12.384;2022-08-21T11:00:20;4.15;;;1.75;;
14933;SDS011;7560;51.364;12.384;2022-08-21T11:05:25;5.05;;;2.20;;
14933;SDS011;7560;51.364;12.384;2022-08-21T11:10:33;3.38;;;1.95;;
14933;SDS011;7560;51.364;12.384;2022-08-21T11:16:02;9.13;;;3.40;;
14933;SDS011;7560;51.364;12.384;2022-08-21T11:26:49;5.22;;;2.60;;
14933;SDS011;7560;51.364;12.384;2022-08-21T11:48:14;4.82;;;2.08;;
14933;SDS011;7560;51.364;12.384;2022-08-21T11:53:32;4.38;;;2.10;;
14933;SDS011;7560;51.364;12.384;2022-08-21T11:58:43;6.05;;;2.13;;
14933;SDS011;7560;51.364;12.384;2022-08-21T12:14:46;5.53;;;1.88;;
14933;SDS011;7560;51.364;12.384;2022-08-21T12:19:59;4.70;;;1.70;;
14933;SDS011;7560;51.364;12.384;2022-08-21T12:25:22;2.72;;;1.83;;
14933;SDS011;7560;51.364;12.384;2022-08-21T12:35:46;4.95;;;1.88;;
14933;SDS011;7560;51.364;12.384;2022-08-21T12:40:53;4.10;;;1.88;;
14933;SDS011;7560;51.364;12.384;2022-08-21T12:46:05;5.78;;;2.03;;
14933;SDS011;7560;51.364;12.384;2022-08-21T12:56:13;4.90;;;2.05;;
14933;SDS011;7560;51.364;12.384;2022-08-21T13:01:22;7.80;;;2.33;;
14933;SDS011;7560;51.364;12.384;2022-08-21T13:06:43;4.72;;;1.77;;
14933;SDS011;7560;51.364;12.384;2022-08-21T13:11:47;5.97;;;2.10;;
14933;SDS011;7560;51.364;12.384;2022-08-21T13:16:53;4.43;;;2.40;;
14933;SDS011;7560;51.364;12.384;2022-08-21T13:21:57;4.38;;;2.22;;
14933;SDS011;7560;51.364;12.384;2022-08-21T13:26:59;5.85;;;2.10;;
14933;SDS011;7560;51.364;12.384;2022-08-21T13:32:02;4.50;;;2.13;;
14933;SDS011;7560;51.364;12.384;2022-08-21T13:37:07;5.88;;;2.30;;
14933;SDS011;7560;51.364;12.384;2022-08-21T13:42:12;4.93;;;2.20;;
14933;SDS011;7560;51.364;12.384;2022-08-21T13:47:15;4.57;;;1.92;;
14933;SDS011;7560;51.364;12.384;2022-08-21T13:52:18;3.78;;;2.10;;
14933;SDS011;7560;51.364;12.384;2022-08-21T13:57:31;7.20;;;2.70;;
14933;SDS011;7560;51.364;12.384;2022-08-21T14:02:37;4.28;;;1.90;;
14933;SDS011;7560;51.364;12.384;2022-08-21T14:07:41;7.05;;;2.20;;
14933;SDS011;7560;51.364;12.384;2022-08-21T14:17:54;4.93;;;1.92;;
14933;SDS011;7560;51.364;12.384;2022-08-21T14:23:07;4.53;;;2.10;;
14933;SDS011;7560;51.364;12.384;2022-08-21T14:33:33;4.88;;;1.80;;
14933;SDS011;7560;51.364;12.384;2022-08-21T14:38:37;4.63;;;1.80;;
14933;SDS011;7560;51.364;12.384;2022-08-21T14:43:41;3.75;;;1.75;;
14933;SDS011;7560;51.364;12.384;2022-08-21T14:48:44;3.85;;;2.17;;
14933;SDS011;7560;51.364;12.384;2022-08-21T14:53:47;6.47;;;2.38;;
14933;SDS011;7560;51.364;12.384;2022-08-21T14:58:49;5.13;;;2.00;;
14933;SDS011;7560;51.364;12.384;2022-08-21T15:03:52;3.88;;;1.70;;
14933;SDS011;7560;51.364;12.384;2022-08-21T15:08:54;3.00;;;1.88;;
14933;SDS011;7560;51.364;12.384;2022-08-21T15:13:58;5.78;;;1.90;;
14933;SDS011;7560;51.364;12.384;2022-08-21T15:19:04;3.38;;;1.77;;
14933;SDS011;7560;51.364;12.384;2022-08-21T15:24:05;5.50;;;1.67;;
14933;SDS011;7560;51.364;12.384;2022-08-21T15:29:07;3.78;;;1.92;;
14933;SDS011;7560;51.364;12.384;2022-08-21T15:34:10;5.05;;;1.80;;
14933;SDS011;7560;51.364;12.384;2022-08-21T15:39:12;3.35;;;1.50;;
14933;SDS011;7560;51.364;12.384;2022-08-21T15:44:14;4.18;;;2.15;;
14933;SDS011;7560;51.364;12.384;2022-08-21T15:49:17;4.68;;;1.90;;
14933;SDS011;7560;51.364;12.384;2022-08-21T15:54:18;4.60;;;1.65;;
14933;SDS011;7560;51.364;12.384;2022-08-21T15:59:20;3.88;;;2.05;;
14933;SDS011;7560;51.364;12.384;2022-08-21T16:04:24;7.68;;;3.17;;
14933;SDS011;7560;51.364;12.384;2022-08-21T16:09:28;6.38;;;3.08;;
14933;SDS011;7560;51.364;12.384;2022-08-21T16:14:29;3.60;;;1.65;;
14933;SDS011;7560;51.364;12.384;2022-08-21T16:19:32;3.08;;;1.77;;
14933;SDS011;7560;51.364;12.384;2022-08-21T16:24:35;3.67;;;1.70;;
14933;SDS011;7560;51.364;12.384;2022-08-21T16:29:39;3.90;;;2.10;;
14933;SDS011;7560;51.364;12.384;2022-08-21T16:34:45;5.95;;;2.13;;
14933;SDS011;7560;51.364;12.384;2022-08-21T16:39:48;3.53;;;1.60;;
14933;SDS011;7560;51.364;12.384;2022-08-21T16:44:53;14.23;;;6.25;;
14933;SDS011;7560;51.364;12.384;2022-08-21T16:49:56;3.92;;;1.60;;
14933;SDS011;7560;51.364;12.384;2022-08-21T16:54:58;4.18;;;1.73;;
14933;SDS011;7560;51.364;12.384;2022-08-21T17:00:00;5.15;;;1.98;;
14933;SDS011;7560;51.364;12.384;2022-08-21T17:05:04;5.07;;;3.85;;
14933;SDS011;7560;51.364;12.384;2022-08-21T17:10:14;4.22;;;2.13;;
14933;SDS011;7560;51.364;12.384;2022-08-21T17:15:22;3.88;;;1.80;;
14933;SDS011;7560;51.364;12.384;2022-08-21T17:20:29;4.22;;;1.90;;
14933;SDS011;7560;51.364;12.384;2022-08-21T17:25:32;3.63;;;1.70;;
14933;SDS011;7560;51.364;12.384;2022-08-21T17:30:36;3.20;;;1.60;;
14933;SDS011;7560;51.364;12.384;2022-08-21T17:35:42;6.53;;;3.20;;
14933;SDS011;7560;51.364;12.384;2022-08-21T17:40:45;5.25;;;1.90;;
14933;SDS011;7560;51.364;12.384;2022-08-21T17:45:48;5.28;;;2.60;;
14933;SDS011;7560;51.364;12.384;2022-08-21T17:50:50;5.13;;;2.53;;
14933;SDS011;7560;51.364;12.384;2022-08-21T17:55:51;4.78;;;2.50;;
14933;SDS011;7560;51.364;12.384;2022-08-21T18:00:53;6.20;;;3.20;;
14933;SDS011;7560;51.364;12.384;2022-08-21T18:05:55;8.07;;;3.42;;
14933;SDS011;7560;51.364;12.384;2022-08-21T18:10:58;5.78;;;3.20;;
14933;SDS011;7560;51.364;12.384;2022-08-21T18:16:00;13.57;;;5.93;;
14933;SDS011;7560;51.364;12.384;2022-08-21T18:21:03;7.43;;;3.92;;
14933;SDS011;7560;51.364;12.384;2022-08-21T18:26:05;43.60;;;33.30;;
14933;SDS011;7560;51.364;12.384;2022-08-21T18:31:08;10.07;;;6.80;;
14933;SDS011;7560;51.364;12.384;2022-08-21T18:36:11;7.43;;;3.63;;
14933;SDS011;7560;51.364;12.384;2022-08-21T18:41:12;8.80;;;4.68;;
14933;SDS011;7560;51.364;12.384;2022-08-21T18:46:14;5.47;;;3.90;;
14933;SDS011;7560;51.364;12.384;2022-08-21T18:51:17;5.47;;;3.35;;
14933;SDS011;7560;51.364;12.384;2022-08-21T18:56:19;6.32;;;3.40;;
14933;SDS011;7560;51.364;12.384;2022-08-21T19:01:21;5.93;;;3.33;;
14933;SDS011;7560;51.364;12.384;2022-08-21T19:06:24;6.78;;;3.67;;
14933;SDS011;7560;51.364;12.384;2022-08-21T19:11:26;7.18;;;3.15;;
14933;SDS011;7560;51.364;12.384;2022-08-21T19:16:29;7.15;;;3.42;;
14933;SDS011;7560;51.364;12.384;2022-08-21T19:21:31;6.65;;;3.10;;
14933;SDS011;7560;51.364;12.384;2022-08-21T19:26:33;4.55;;;3.05;;
14933;SDS011;7560;51.364;12.384;2022-08-21T19:31:40;5.78;;;3.58;;
14933;SDS011;7560;51.364;12.384;2022-08-21T19:36:43;4.13;;;3.03;;
14933;SDS011;7560;51.364;12.384;2022-08-21T19:41:46;5.47;;;3.08;;
14933;SDS011;7560;51.364;12.384;2022-08-21T19:46:51;7.32;;;3.22;;
14933;SDS011;7560;51.364;12.384;2022-08-21T19:51:56;6.35;;;3.47;;
14933;SDS011;7560;51.364;12.384;2022-08-21T19:57:00;6.38;;;3.20;;
14933;SDS011;7560;51.364;12.384;2022-08-21T20:02:24;3.35;;;3.05;;
14933;SDS011;7560;51.364;12.384;2022-08-21T20:07:26;6.25;;;3.28;;
14933;SDS011;7560;51.364;12.384;2022-08-21T20:12:27;4.47;;;3.15;;
14933;SDS011;7560;51.364;12.384;2022-08-21T20:17:29;8.23;;;4.32;;
14933;SDS011;7560;51.364;12.384;2022-08-21T20:22:31;4.15;;;3.10;;
14933;SDS011;7560;51.364;12.384;2022-08-21T20:27:33;4.78;;;3.58;;
14933;SDS011;7560;51.364;12.384;2022-08-21T20:32:40;5.82;;;3.97;;
14933;SDS011;7560;51.364;12.384;2022-08-21T20:38:02;6.55;;;3.40;;
14933;SDS011;7560;51.364;12.384;2022-08-21T20:43:04;5.25;;;3.17;;
14933;SDS011;7560;51.364;12.384;2022-08-21T20:48:14;6.50;;;3.60;;
14933;SDS011;7560;51.364;12.384;2022-08-21T20:53:58;6.25;;;4.07;;
14933;SDS011;7560;51.364;12.384;2022-08-21T20:59:09;7.22;;;3.60;;
14933;SDS011;7560;51.364;12.384;2022-08-21T21:04:24;6.70;;;3.95;;
14933;SDS011;7560;51.364;12.384;2022-08-21T21:09:43;6.63;;;4.20;;
14933;SDS011;7560;51.364;12.384;2022-08-21T21:14:53;6.50;;;3.60;;
14933;SDS011;7560;51.364;12.384;2022-08-21T21:30:41;6.28;;;4.20;;
14933;SDS011;7560;51.364;12.384;2022-08-21T21:35:54;7.50;;;4.25;;
14933;SDS011;7560;51.364;12.384;2022-08-21T21:41:16;6.35;;;4.57;;
14933;SDS011;7560;51.364;12.384;2022-08-21T21:46:29;5.93;;;4.10;;
14933;SDS011;7560;51.364;12.384;2022-08-21T22:02:56;6.53;;;4.15;;
14933;SDS011;7560;51.364;12.384;2022-08-21T22:08:02;8.15;;;4.45;;
14933;SDS011;7560;51.364;12.384;2022-08-21T22:18:31;5.88;;;3.75;;
14933;SDS011;7560;51.364;12.384;2022-08-21T22:23:47;6.03;;;4.43;;
14933;SDS011;7560;51.364;12.384;2022-08-21T22:28:53;7.60;;;4.75;;
14933;SDS011;7560;51.364;12.384;2022-08-21T22:34:09;9.10;;;4.65;;
14933;SDS011;7560;51.364;12.384;2022-08-21T22:39:42;6.75;;;4.13;;
14933;SDS011;7560;51.364;12.384;2022-08-21T22:44:53;6.18;;;4.20;;
14933;SDS011;7560;51.364;12.384;2022-08-21T22:49:57;5.63;;;4.18;;
14933;SDS011;7560;51.364;12.384;2022-08-21T22:55:21;8.25;;;4.20;;
14933;SDS011;7560;51.364;12.384;2022-08-21T23:05:59;7.85;;;4.82;;
14933;SDS011;7560;51.364;12.384;2022-08-21T23:11:14;5.50;;;4.47;;
14933;SDS011;7560;51.364;12.384;2022-08-21T23:22:02;6.18;;;4.40;;
14933;SDS011;7560;51.364;12.384;2022-08-21T23:27:43;6.47;;;4.35;;
14933;SDS011;7560;51.364;12.384;2022-08-21T23:59:56;6.85;;;4.57;;
